Sunday, April 22, 2018, 1:01 AM GMT
Back to Local

CWEW, L'Assomption

Location: , , Canada Lat: 45.817
Local Time: 1:01 AM GMT ( 1:01 GMT) Lon: -73.433
Time Zone: GMT Elev: 68 ft

Show me the last for .
Show Coded

Time T Td Feel RH Dir Speed Gust Alt SLP Vis Weather Sky Remarks
2018-04-22 00:00 48 22 46 35 320° 5 - - 30.29 0 None
2018-04-21 23:00 52 18 - 25 320° 9 - - 30.27 0 None
2018-04-21 22:00 54 16 - 21 330° 10 - - 30.26 0 None
2018-04-21 19:00 52 19 - 26 310° 8 - - 30.27 0 None
2018-04-21 18:00 51 22 - 31 280° 8 - - 30.29 0 Peak wind: 19 mph (17 kts) from 270° at 36 min
2018-04-21 17:00 50 22 47 33 290° 7 - - 30.31 0 None
2018-04-21 16:00 47 23 46 37 260° 3 - - 30.33 0 None
2018-04-21 15:00 45 22 40 39 300° 10 - - 30.35 0 None
2018-04-21 14:00 44 22 40 41 300° 8 - - 30.35 0 None
2018-04-21 13:00 42 25 36 51 320° 9 - - 30.35 0 1-hr Precip Total: 0.01"
2018-04-21 12:00 37 24 30 60 320° 9 - - 30.34 0 1-hr Precip Total: 0.01"
2018-04-21 11:00 34 24 30 66 310° 5 - - 30.34 0 None
2018-04-21 10:00 32 26 27 78 310° 5 - - 30.32 0 None
2018-04-21 09:00 33 24 30 68 300° 3 - - 30.32 0 None
2018-04-21 08:00 35 23 30 61 290° 6 - - 30.32 0 None
2018-04-21 07:00 35 24 31 62 300° 5 - - 30.31 0 None
2018-04-21 06:00 37 24 32 59 300° 6 - - 30.30 0 None
2018-04-21 05:00 39 25 37 56 300° 3 - - 30.30 0 None
2018-04-21 04:00 41 24 39 51 290° 3 - - 30.29 0 None
2018-04-21 03:00 42 24 40 50 290° 3 - - 30.30 0 None
2018-04-21 02:00 42 25 39 50 310° 5 - - 30.30 0 None

Support USWX by starting your Amazon purchase here.